createdAt,value
2023-01-21T00:00:45.936Z,99535.91
2023-01-21T00:03:14.028Z,99537.56
2023-01-21T00:05:41.708Z,99526.81
2023-01-21T00:08:10.738Z,99533.81
2023-01-21T00:10:38.460Z,99529.25
2023-01-21T00:13:06.173Z,99533.81
2023-01-21T00:15:33.838Z,99537.13
2023-01-21T00:18:01.536Z,99534.63
2023-01-21T00:20:29.262Z,99540.84
2023-01-21T00:22:56.903Z,99540.84
2023-01-21T00:25:25.899Z,99543.53
2023-01-21T00:27:53.567Z,99544.59
2023-01-21T00:30:21.461Z,99541.91
2023-01-21T00:32:49.152Z,99534.03
2023-01-21T00:35:16.792Z,99538.59
2023-01-21T00:37:44.503Z,99549.38
2023-01-21T00:40:12.736Z,99549.63
2023-01-21T00:42:41.804Z,99556.88
2023-01-21T00:45:10.752Z,99562.28
2023-01-21T00:47:38.482Z,99556.88
2023-01-21T00:50:06.685Z,99541.75
2023-01-21T00:52:34.332Z,99541.75
2023-01-21T00:55:02.081Z,99541.75
2023-01-21T00:57:29.715Z,99550.91
2023-01-21T00:59:58.916Z,99540.13
2023-01-21T01:02:26.666Z,99533.69
2023-01-21T01:04:54.340Z,99532.03
2023-01-21T01:07:22.004Z,99516.91
2023-01-21T01:09:49.638Z,99514.22
2023-01-21T01:12:17.352Z,99516.09
2023-01-21T01:14:45.003Z,99516.91
2023-01-21T01:17:14.070Z,99506.16
2023-01-21T01:19:41.770Z,99497.03
2023-01-21T01:22:09.384Z,99503.22
2023-01-21T01:24:37.145Z,99504.88
2023-01-21T01:27:04.784Z,99505.72
2023-01-21T01:29:32.605Z,99513.78
2023-01-21T01:32:00.281Z,99520.00
2023-01-21T01:34:29.397Z,99519.19
2023-01-21T01:36:57.143Z,99520.81
2023-01-21T01:39:24.960Z,99521.03
2023-01-21T01:41:52.662Z,99530.97
2023-01-21T01:44:38.821Z,99522.09
2023-01-21T01:47:06.484Z,99521.50
2023-01-21T01:49:35.539Z,99523.16
2023-01-21T01:52:04.168Z,99520.47
2023-01-21T01:54:32.779Z,99516.91
2023-01-21T01:57:01.124Z,99520.66
2023-01-21T01:59:28.957Z,99502.63
2023-01-21T02:01:56.856Z,99491.03
2023-01-21T02:04:24.042Z,99484.03
2023-01-21T02:06:53.090Z,99480.72
2023-01-21T02:09:20.822Z,99482.81
2023-01-21T02:11:48.491Z,99480.13
2023-01-21T02:14:16.195Z,99473.09
2023-01-21T02:16:48.965Z,99463.97
2023-01-21T02:19:34.932Z,99457.16
2023-01-21T02:22:05.500Z,99449.91
2023-01-21T02:24:46.315Z,99434.56
2023-01-21T02:27:30.789Z,99430.03
2023-01-21T02:30:16.877Z,99433.75
2023-01-21T02:33:09.624Z,99449.44
2023-01-21T02:35:39.371Z,99444.91
2023-01-21T02:38:09.722Z,99445.72
2023-01-21T02:40:38.799Z,99441.97
2023-01-21T02:43:07.932Z,99452.72
2023-01-21T02:45:36.554Z,99451.09
2023-01-21T02:48:06.853Z,99455.66
2023-01-21T02:50:36.353Z,99455.66
2023-01-21T02:53:04.376Z,99462.91
2023-01-21T02:55:32.529Z,99452.13
2023-01-21T02:58:00.811Z,99454.81
2023-01-21T03:00:29.822Z,99447.81
2023-01-21T03:03:21.361Z,99447.00
2023-01-21T03:06:09.789Z,99447.22
2023-01-21T03:08:40.401Z,99438.09
2023-01-21T03:11:10.529Z,99444.50
2023-01-21T03:13:57.154Z,99449.91
2023-01-21T03:16:42.717Z,99449.91
2023-01-21T03:19:11.268Z,99443.69
2023-01-21T03:21:38.977Z,99449.09
2023-01-21T03:24:08.267Z,99455.28
2023-01-21T03:26:36.704Z,99448.28
2023-01-21T03:29:04.634Z,99452.59
2023-01-21T03:31:32.824Z,99440.78
2023-01-21T03:34:01.956Z,99446.19
2023-01-21T03:36:33.191Z,99435.41
2023-01-21T03:39:00.807Z,99427.31
2023-01-21T03:41:32.204Z,99411.16
2023-01-21T03:43:59.823Z,99379.66
2023-01-21T03:46:28.516Z,99366.19
2023-01-21T03:48:57.028Z,99352.47
2023-01-21T03:51:27.099Z,99350.84
2023-01-21T03:53:56.301Z,99345.47
2023-01-21T03:56:24.157Z,99358.94
2023-01-21T03:58:53.249Z,99360.00
2023-01-21T04:01:21.011Z,99370.78
2023-01-21T04:03:48.809Z,99381.53
2023-01-21T04:06:16.562Z,99381.53
2023-01-21T04:08:44.294Z,99379.88
2023-01-21T04:11:12.132Z,99372.88
2023-01-21T04:13:39.911Z,99386.34
2023-01-21T04:16:09.544Z,99376.59
2023-01-21T04:18:37.230Z,99375.78
2023-01-21T04:21:05.033Z,99372.06
2023-01-21T04:23:32.876Z,99370.38
2023-01-21T04:26:00.569Z,99366.88
2023-01-21T04:28:28.329Z,99362.56
2023-01-21T04:30:56.052Z,99363.38
2023-01-21T04:33:25.125Z,99359.06
2023-01-21T04:35:52.776Z,99350.13
2023-01-21T04:38:20.405Z,99356.34
2023-01-21T04:40:48.095Z,99360.91
2023-01-21T04:43:16.087Z,99365.25
2023-01-21T04:45:43.814Z,99371.44
2023-01-21T04:48:11.717Z,99374.97
2023-01-21T04:50:40.791Z,99378.47
2023-01-21T04:53:08.461Z,99384.44
2023-01-21T04:55:36.074Z,99390.66
2023-01-21T04:58:03.759Z,99401.44
2023-01-21T05:00:31.413Z,99404.13
2023-01-21T05:02:59.047Z,99401.44
2023-01-21T05:05:26.723Z,99404.13
2023-01-21T05:07:55.858Z,99399.78
2023-01-21T05:10:23.567Z,99403.53
2023-01-21T05:12:51.209Z,99402.50
2023-01-21T05:15:18.973Z,99405.66
2023-01-21T05:17:46.755Z,99403.97
2023-01-21T05:20:14.922Z,99409.38
2023-01-21T05:22:42.680Z,99409.38
2023-01-21T05:25:11.766Z,99411.25
2023-01-21T05:27:39.369Z,99409.38
2023-01-21T05:30:07.665Z,99413.13
2023-01-21T05:32:36.585Z,99403.41
2023-01-21T05:35:04.297Z,99412.31
2023-01-21T05:37:31.909Z,99409.84
2023-01-21T05:39:59.813Z,99406.09
2023-01-21T05:42:28.832Z,99402.56
2023-01-21T05:44:56.750Z,99401.75
2023-01-21T05:47:24.424Z,99406.09
2023-01-21T05:49:52.066Z,99400.72
2023-01-21T05:52:19.753Z,99402.34
2023-01-21T05:55:00.968Z,99403.97
2023-01-21T05:57:30.848Z,99410.22
2023-01-21T05:59:58.560Z,99421.00
2023-01-21T06:02:26.459Z,99419.94
2023-01-21T06:04:54.156Z,99418.03
2023-01-21T06:07:21.846Z,99415.97
2023-01-21T06:09:49.537Z,99411.38
2023-01-21T06:12:17.200Z,99390.91
2023-01-21T06:14:46.328Z,99376.59
2023-01-21T06:17:14.037Z,99389.03
2023-01-21T06:19:41.812Z,99391.47
2023-01-21T06:22:10.913Z,99392.53
2023-01-21T06:24:38.591Z,99397.09
2023-01-21T06:27:06.218Z,99396.03
2023-01-21T06:29:33.911Z,99395.22
2023-01-21T06:32:03.166Z,99397.69
2023-01-21T06:34:31.019Z,99397.69
2023-01-21T06:36:58.662Z,99386.94
2023-01-21T06:39:26.347Z,99404.13
2023-01-21T06:41:55.335Z,99419.25
2023-01-21T06:44:23.602Z,99424.63
2023-01-21T06:47:05.349Z,99430.03
2023-01-21T06:49:34.519Z,99432.72
2023-01-21T06:52:02.271Z,99430.03
2023-01-21T06:54:30.575Z,99416.31
2023-01-21T06:56:58.366Z,99418.19
2023-01-21T06:59:26.018Z,99425.19
2023-01-21T07:01:54.131Z,99433.28
2023-01-21T07:04:22.542Z,99439.28
2023-01-21T07:06:51.605Z,99441.97
2023-01-21T07:09:19.339Z,99440.09
2023-01-21T07:11:46.999Z,99449.81
2023-01-21T07:14:14.808Z,99449.00
2023-01-21T07:16:42.490Z,99440.94
2023-01-21T07:19:10.200Z,99430.16
2023-01-21T07:21:37.854Z,99427.47
2023-01-21T07:24:07.261Z,99430.16
2023-01-21T07:26:38.143Z,99420.41
2023-01-21T07:29:05.941Z,99409.63
2023-01-21T07:31:33.739Z,99418.53
2023-01-21T07:34:01.477Z,99428.50
2023-01-21T07:36:29.232Z,99421.22
2023-01-21T07:38:56.965Z,99423.09
2023-01-21T07:41:25.987Z,99418.53
2023-01-21T07:43:53.668Z,99405.06
2023-01-21T07:46:21.570Z,99410.47
2023-01-21T07:48:49.302Z,99416.69
2023-01-21T07:51:20.246Z,99421.22
2023-01-21T07:53:48.007Z,99419.25
2023-01-21T07:56:16.445Z,99433.88
2023-01-21T07:58:47.020Z,99438.25
2023-01-21T08:01:14.765Z,99437.38
2023-01-21T08:03:42.475Z,99441.97
2023-01-21T08:06:10.225Z,99444.44
2023-01-21T08:08:37.921Z,99450.63
2023-01-21T08:11:05.734Z,99441.50
2023-01-21T08:13:33.441Z,99446.88
2023-01-21T08:16:02.483Z,99454.97
2023-01-21T08:18:30.481Z,99459.31
2023-01-21T08:20:58.315Z,99453.94
2023-01-21T08:23:26.280Z,99460.94
2023-01-21T08:25:54.111Z,99465.53
2023-01-21T08:28:21.949Z,99459.06
2023-01-21T08:30:49.633Z,99456.38
2023-01-21T08:33:19.118Z,99458.25
2023-01-21T08:35:46.776Z,99448.56
2023-01-21T08:38:15.123Z,99451.25
2023-01-21T08:40:42.796Z,99444.78
2023-01-21T08:43:11.664Z,99438.59
2023-01-21T08:45:39.331Z,99433.19
2023-01-21T08:48:08.249Z,99422.44
2023-01-21T08:50:37.311Z,99426.19
2023-01-21T08:53:05.675Z,99425.34
2023-01-21T08:55:33.391Z,99427.00
2023-01-21T08:58:01.769Z,99431.31
2023-01-21T09:00:29.505Z,99431.56
2023-01-21T09:02:57.869Z,99432.38
2023-01-21T09:05:25.485Z,99430.72
2023-01-21T09:07:57.245Z,99423.50
2023-01-21T09:10:43.199Z,99425.59
2023-01-21T09:13:11.568Z,99420.19
2023-01-21T09:15:39.937Z,99427.47
2023-01-21T09:18:07.667Z,99409.63
2023-01-21T09:20:35.952Z,99412.94
2023-01-21T09:23:25.071Z,99425.59
2023-01-21T09:25:52.881Z,99431.78
2023-01-21T09:28:20.578Z,99438.81
2023-01-21T09:30:49.705Z,99439.88
2023-01-21T09:33:17.414Z,99433.66
2023-01-21T09:35:45.623Z,99432.84
2023-01-21T09:38:14.690Z,99437.38
2023-01-21T09:40:45.858Z,99439.28
2023-01-21T09:43:17.675Z,99436.56
2023-01-21T09:45:46.056Z,99443.03
2023-01-21T09:48:14.973Z,99441.38
2023-01-21T09:50:43.301Z,99436.81
2023-01-21T09:53:25.932Z,99435.16
2023-01-21T09:55:55.615Z,99441.59
2023-01-21T09:58:23.415Z,99445.34
2023-01-21T10:00:53.329Z,99446.19
2023-01-21T10:03:23.188Z,99436.44
2023-01-21T10:06:10.689Z,99436.44
2023-01-21T10:08:40.459Z,99435.63
2023-01-21T10:11:14.309Z,99435.63
2023-01-21T10:13:44.304Z,99440.19
2023-01-21T10:16:15.230Z,99425.06
2023-01-21T10:18:43.636Z,99424.25
2023-01-21T10:21:13.102Z,99422.84
2023-01-21T10:23:43.050Z,99430.44
2023-01-21T10:26:13.741Z,99430.03
2023-01-21T10:28:41.917Z,99413.84
2023-01-21T10:31:11.849Z,99417.59
2023-01-21T10:33:39.586Z,99425.44
2023-01-21T10:36:15.295Z,99411.16
2023-01-21T10:38:44.576Z,99404.72
2023-01-21T10:41:22.816Z,99407.41
2023-01-21T10:43:52.170Z,99398.50
2023-01-21T10:46:21.784Z,99397.69
2023-01-21T10:48:50.882Z,99384.44
2023-01-21T10:51:20.373Z,99375.31
2023-01-21T10:53:49.920Z,99374.50
2023-01-21T10:56:20.611Z,99367.47
2023-01-21T10:58:50.202Z,99371.22
2023-01-21T11:01:19.679Z,99363.97
2023-01-21T11:03:48.508Z,99360.69
2023-01-21T11:06:17.990Z,99366.88
2023-01-21T11:08:47.013Z,99360.91
2023-01-21T11:11:14.716Z,99364.44
2023-01-21T11:13:44.926Z,99358.19
2023-01-21T11:16:12.682Z,99353.66
2023-01-21T11:18:41.649Z,99348.50
2023-01-21T11:21:14.454Z,99364.44
2023-01-21T11:23:42.872Z,99351.78
2023-01-21T11:26:17.704Z,99350.97
2023-01-21T11:28:47.862Z,99344.75
2023-01-21T11:31:15.937Z,99350.13
2023-01-21T11:33:45.041Z,99355.50
2023-01-21T11:36:13.653Z,99349.09
2023-01-21T11:38:42.074Z,99354.22
2023-01-21T11:41:16.708Z,99356.09
2023-01-21T11:43:46.470Z,99362.09
2023-01-21T11:46:31.780Z,99352.34
2023-01-21T11:49:21.542Z,99358.34
2023-01-21T11:51:49.270Z,99353.75
2023-01-21T11:54:17.951Z,99359.41
2023-01-21T11:56:53.379Z,99365.81
2023-01-21T11:59:23.340Z,99357.16
2023-01-21T12:01:53.212Z,99354.47
2023-01-21T12:04:20.886Z,99357.16
2023-01-21T12:06:49.272Z,99355.50
2023-01-21T12:09:18.217Z,99351.19
2023-01-21T12:11:47.059Z,99339.00
2023-01-21T12:14:18.103Z,99354.56
2023-01-21T12:16:47.525Z,99351.06
2023-01-21T12:19:28.660Z,99351.06
2023-01-21T12:22:00.822Z,99361.00
2023-01-21T12:24:32.473Z,99360.19
2023-01-21T12:27:02.527Z,99358.53
2023-01-21T12:29:34.971Z,99358.53
2023-01-21T12:32:04.252Z,99355.84
2023-01-21T12:34:33.965Z,99353.16
2023-01-21T12:37:03.325Z,99347.75
2023-01-21T12:39:32.226Z,99349.63
2023-01-21T12:42:03.955Z,99349.44
2023-01-21T12:44:33.491Z,99361.81
2023-01-21T12:47:03.109Z,99359.94
2023-01-21T12:49:46.079Z,99369.69
2023-01-21T12:52:16.177Z,99372.13
2023-01-21T12:54:45.025Z,99368.41
2023-01-21T12:57:14.651Z,99364.88
2023-01-21T12:59:43.475Z,99370.25
2023-01-21T13:02:16.167Z,99373.19
2023-01-21T13:04:45.100Z,99389.34
2023-01-21T13:07:16.065Z,99387.69
2023-01-21T13:09:45.714Z,99376.91
2023-01-21T13:12:14.528Z,99391.44
2023-01-21T13:14:42.514Z,99398.72
2023-01-21T13:17:12.508Z,99389.81
2023-01-21T13:19:40.239Z,99392.50
2023-01-21T13:22:09.625Z,99382.78
2023-01-21T13:24:44.665Z,99384.66
2023-01-21T13:27:14.207Z,99386.53
2023-01-21T13:29:45.325Z,99377.63
2023-01-21T13:32:25.074Z,99389.22
2023-01-21T13:34:54.989Z,99384.03
2023-01-21T13:37:23.973Z,99386.53
2023-01-21T13:39:54.832Z,99385.91
2023-01-21T13:42:33.327Z,99387.56
2023-01-21T13:45:09.194Z,99394.81
2023-01-21T13:47:40.905Z,99391.31
2023-01-21T13:50:20.130Z,99392.13
2023-01-21T13:52:51.372Z,99387.56
2023-01-21T13:55:27.956Z,99390.84
2023-01-21T13:58:02.620Z,99391.91
2023-01-21T14:00:32.038Z,99390.84
2023-01-21T14:03:01.018Z,99390.84
2023-01-21T14:05:31.275Z,99393.31
2023-01-21T14:08:00.442Z,99402.44
2023-01-21T14:10:31.778Z,99405.13
2023-01-21T14:13:18.142Z,99416.13
2023-01-21T14:15:51.454Z,99424.44
2023-01-21T14:18:28.185Z,99429.81
2023-01-21T14:21:04.599Z,99438.13
2023-01-21T14:23:39.116Z,99445.38
2023-01-21T14:26:15.871Z,99441.88
2023-01-21T14:28:44.885Z,99449.13
2023-01-21T14:31:13.720Z,99450.19
2023-01-21T14:33:45.337Z,99436.94
2023-01-21T14:36:14.263Z,99436.13
2023-01-21T14:38:45.924Z,99442.31
2023-01-21T14:41:14.920Z,99446.06
2023-01-21T14:43:51.864Z,99444.41
2023-01-21T14:46:26.520Z,99454.16
2023-01-21T14:48:58.989Z,99456.03
2023-01-21T14:51:26.696Z,99459.53
2023-01-21T14:54:00.487Z,99456.84
2023-01-21T14:56:31.720Z,99461.41
2023-01-21T14:59:00.693Z,99463.03
2023-01-21T15:01:32.541Z,99470.31
2023-01-21T15:04:02.006Z,99470.91
2023-01-21T15:06:29.680Z,99463.84
2023-01-21T15:08:59.084Z,99463.84
2023-01-21T15:11:30.467Z,99462.81
2023-01-21T15:14:12.990Z,99459.28
2023-01-21T15:16:40.822Z,99463.84
2023-01-21T15:19:25.760Z,99462.22
2023-01-21T15:22:12.027Z,99460.56
2023-01-21T15:24:40.964Z,99471.31
2023-01-21T15:27:19.642Z,99475.06
2023-01-21T15:29:48.526Z,99480.44
2023-01-21T15:32:20.428Z,99478.81
2023-01-21T15:34:49.920Z,99480.66
2023-01-21T15:37:18.100Z,99483.34
2023-01-21T15:39:46.591Z,99485.22
2023-01-21T15:42:17.869Z,99480.88
2023-01-21T15:44:49.522Z,99481.91
2023-01-21T15:47:23.790Z,99480.88
2023-01-21T15:49:54.329Z,99488.16
2023-01-21T15:52:26.091Z,99490.00
2023-01-21T15:54:56.250Z,99495.38
2023-01-21T15:57:28.319Z,99496.44
2023-01-21T16:00:15.476Z,99488.34
2023-01-21T16:02:46.322Z,99499.13
2023-01-21T16:05:21.115Z,99501.81
2023-01-21T16:07:52.390Z,99513.19
2023-01-21T16:10:22.495Z,99514.00
2023-01-21T16:12:52.119Z,99521.03
2023-01-21T16:15:24.060Z,99521.88
2023-01-21T16:18:05.091Z,99524.78
2023-01-21T16:20:33.635Z,99517.53
2023-01-21T16:23:01.916Z,99521.88
2023-01-21T16:25:29.581Z,99529.94
2023-01-21T16:27:58.075Z,99521.03
2023-01-21T16:30:29.043Z,99519.41
2023-01-21T16:33:10.798Z,99518.56
2023-01-21T16:35:45.463Z,99522.28
2023-01-21T16:38:18.124Z,99527.69
2023-01-21T16:40:45.905Z,99530.63
2023-01-21T16:43:23.674Z,99535.19
2023-01-21T16:45:53.195Z,99530.81
2023-01-21T16:48:23.088Z,99538.09
2023-01-21T16:50:50.789Z,99537.28
2023-01-21T16:53:19.498Z,99538.09
2023-01-21T16:55:47.342Z,99535.41
2023-01-21T16:58:27.138Z,99541.00
2023-01-21T17:01:05.776Z,99545.34
2023-01-21T17:03:34.472Z,99548.03
2023-01-21T17:06:03.617Z,99551.75
2023-01-21T17:08:31.249Z,99551.75
2023-01-21T17:11:03.142Z,99559.84
2023-01-21T17:13:31.089Z,99556.31
2023-01-21T17:16:01.141Z,99560.88
2023-01-21T17:18:31.304Z,99566.28
2023-01-21T17:21:03.770Z,99579.72
2023-01-21T17:23:32.021Z,99567.09
2023-01-21T17:26:01.085Z,99572.47
2023-01-21T17:28:29.663Z,99585.13
2023-01-21T17:31:11.283Z,99586.16
2023-01-21T17:33:40.381Z,99581.59
2023-01-21T17:36:09.925Z,99589.88
2023-01-21T17:38:40.588Z,99575.41
2023-01-21T17:41:09.941Z,99588.25
2023-01-21T17:43:38.327Z,99589.88
2023-01-21T17:46:06.963Z,99592.81
2023-01-21T17:48:35.217Z,99595.50
2023-01-21T17:51:08.470Z,99593.63
2023-01-21T17:53:41.225Z,99602.78
2023-01-21T17:56:09.760Z,99590.94
2023-01-21T17:58:44.714Z,99602.78
2023-01-21T18:01:13.416Z,99615.16
2023-01-21T18:03:41.277Z,99610.59
2023-01-21T18:06:16.095Z,99613.09
2023-01-21T18:08:43.777Z,99613.09
2023-01-21T18:11:12.383Z,99611.22
2023-01-21T18:13:40.047Z,99614.72
2023-01-21T18:16:08.916Z,99609.34
2023-01-21T18:18:36.692Z,99604.56
2023-01-21T18:21:04.474Z,99610.97
2023-01-21T18:23:34.360Z,99604.78
2023-01-21T18:26:02.840Z,99613.66
2023-01-21T18:28:33.023Z,99616.34
2023-01-21T18:31:01.922Z,99627.13
2023-01-21T18:33:31.731Z,99621.75
2023-01-21T18:35:59.866Z,99627.13
2023-01-21T18:38:29.734Z,99633.56
2023-01-21T18:40:59.722Z,99637.31
2023-01-21T18:43:28.198Z,99639.19
2023-01-21T18:45:56.583Z,99635.66
2023-01-21T18:48:29.204Z,99642.09
2023-01-21T18:50:57.046Z,99645.59
2023-01-21T18:53:27.267Z,99639.41
2023-01-21T18:55:54.952Z,99646.66
2023-01-21T18:58:24.773Z,99650.38
2023-01-21T19:00:52.483Z,99637.75
2023-01-21T19:03:21.196Z,99644.78
2023-01-21T19:05:49.459Z,99652.84
2023-01-21T19:08:18.646Z,99648.28
2023-01-21T19:10:46.327Z,99651.78
2023-01-21T19:13:15.154Z,99649.09
2023-01-21T19:15:45.480Z,99655.34
2023-01-21T19:18:17.204Z,99656.16
2023-01-21T19:20:44.872Z,99666.91
2023-01-21T19:23:15.961Z,99665.88
2023-01-21T19:25:43.601Z,99670.19
2023-01-21T19:28:12.309Z,99671.84
2023-01-21T19:30:45.057Z,99678.88
2023-01-21T19:33:15.374Z,99677.00
2023-01-21T19:35:43.930Z,99675.97
2023-01-21T19:38:12.232Z,99680.31
2023-01-21T19:40:40.768Z,99670.34
2023-01-21T19:43:10.871Z,99678.44
2023-01-21T19:45:39.972Z,99676.59
2023-01-21T19:48:09.621Z,99680.09
2023-01-21T19:50:40.227Z,99681.97
2023-01-21T19:53:07.954Z,99678.44
2023-01-21T19:55:37.251Z,99681.13
2023-01-21T19:58:05.249Z,99678.44
2023-01-21T20:00:35.025Z,99678.44
2023-01-21T20:03:02.897Z,99673.91
2023-01-21T20:05:34.409Z,99663.94
2023-01-21T20:08:03.471Z,99666.63
2023-01-21T20:10:32.027Z,99656.91
2023-01-21T20:12:59.672Z,99657.75
2023-01-21T20:15:30.423Z,99659.38
2023-01-21T20:17:58.927Z,99659.38
2023-01-21T20:20:28.037Z,99670.97
2023-01-21T20:22:55.784Z,99668.28
2023-01-21T20:25:25.719Z,99667.47
2023-01-21T20:27:53.763Z,99655.88
2023-01-21T20:30:24.393Z,99655.88
2023-01-21T20:32:52.152Z,99665.59
2023-01-21T20:35:20.808Z,99668.28
2023-01-21T20:37:48.973Z,99666.63
2023-01-21T20:40:21.328Z,99666.63
2023-01-21T20:42:51.355Z,99685.47
2023-01-21T20:45:19.540Z,99692.50
2023-01-21T20:47:50.423Z,99691.69
2023-01-21T20:50:19.268Z,99697.88
2023-01-21T20:52:47.891Z,99698.72
2023-01-21T20:55:17.296Z,99687.13
2023-01-21T20:57:46.904Z,99681.75
2023-01-21T21:00:19.913Z,99680.91
2023-01-21T21:02:49.366Z,99684.44
2023-01-21T21:05:17.709Z,99688.19
2023-01-21T21:07:47.375Z,99680.09
2023-01-21T21:10:19.784Z,99692.50
2023-01-21T21:12:48.343Z,99703.28
2023-01-21T21:15:16.456Z,99700.59
2023-01-21T21:17:47.769Z,99689.81
2023-01-21T21:20:16.276Z,99694.38
2023-01-21T21:22:45.490Z,99694.16
2023-01-21T21:25:16.776Z,99689.81
2023-01-21T21:27:46.324Z,99691.47
2023-01-21T21:30:15.190Z,99703.06
2023-01-21T21:32:43.799Z,99704.09
2023-01-21T21:35:20.983Z,99702.25
2023-01-21T21:37:50.351Z,99695.00
2023-01-21T21:40:18.278Z,99694.16
2023-01-21T21:43:08.352Z,99695.00
2023-01-21T21:45:37.320Z,99708.25
2023-01-21T21:48:23.272Z,99702.84
2023-01-21T21:50:57.563Z,99716.94
2023-01-21T21:53:26.410Z,99713.41
2023-01-21T21:55:54.141Z,99722.31
2023-01-21T21:58:22.468Z,99730.41
2023-01-21T22:00:54.096Z,99731.22
2023-01-21T22:03:23.526Z,99734.75
2023-01-21T22:05:55.064Z,99737.44
2023-01-21T22:08:26.333Z,99748.41
2023-01-21T22:10:56.863Z,99760.00
2023-01-21T22:13:25.257Z,99756.72
2023-01-21T22:15:54.218Z,99751.53
2023-01-21T22:18:21.911Z,99749.66
2023-01-21T22:20:53.392Z,99743.66
2023-01-21T22:23:21.050Z,99750.91
2023-01-21T22:25:50.924Z,99754.66
2023-01-21T22:28:18.633Z,99754.66
2023-01-21T22:30:47.192Z,99746.78
2023-01-21T22:33:15.275Z,99747.84
2023-01-21T22:35:45.853Z,99752.19
2023-01-21T22:38:13.544Z,99758.63
2023-01-21T22:40:41.945Z,99761.31
2023-01-21T22:43:13.284Z,99755.06
2023-01-21T22:45:42.136Z,99760.47
2023-01-21T22:48:09.799Z,99758.81
2023-01-21T22:50:41.369Z,99758.81
2023-01-21T22:53:09.092Z,99766.91
2023-01-21T22:55:38.843Z,99771.22
2023-01-21T22:58:06.557Z,99782.00
2023-01-21T23:00:40.380Z,99777.47
2023-01-21T23:03:08.193Z,99779.09
2023-01-21T23:05:36.658Z,99789.88
2023-01-21T23:08:04.537Z,99795.25
2023-01-21T23:10:32.965Z,99789.88
2023-01-21T23:13:00.704Z,99791.75
2023-01-21T23:15:30.440Z,99786.56
2023-01-21T23:17:59.505Z,99790.06
2023-01-21T23:20:29.903Z,99801.06
2023-01-21T23:22:57.510Z,99801.88
2023-01-21T23:25:25.832Z,99791.31
2023-01-21T23:27:53.458Z,99785.94
2023-01-21T23:30:21.744Z,99785.13
2023-01-21T23:32:49.442Z,99793.19
2023-01-21T23:35:19.838Z,99803.16
2023-01-21T23:37:47.625Z,99797.78
2023-01-21T23:40:15.394Z,99800.47
2023-01-21T23:42:43.221Z,99803.97
2023-01-21T23:45:11.495Z,99796.13
2023-01-21T23:47:39.168Z,99811.47
2023-01-21T23:50:08.726Z,99819.53
2023-01-21T23:52:37.847Z,99818.69
2023-01-21T23:55:05.936Z,99809.78
2023-01-21T23:57:33.681Z,99809.78
